Terminal Aerodrome Forecast
Issued by NWS Caribou, ME

Home | Current Version | Previous Version | Text Only | Print | Product List | Glossary On
Versions: 1 2 3 4 5 6 7 8 9 10 11 12 13 14 15 16 17 18 19 20 21 22 23 24 25 26 27
000
FTUS41 KCAR 302320
TAFCAR
TAF
KCAR 302320Z 3100/3124 20008KT P6SM VCSH BKN040
     FM310700 23004KT 2SM BR BKN250
     FM311000 27007KT P6SM SCT035
     FM311800 27009KT P6SM VCSH BKN045=

USA.gov is the U.S. government's official web portal to all federal, state and local government web resources and services.